createdAt,value
2022-09-28T00:01:37.036Z,69.68
2022-09-28T00:07:30.836Z,70.30
2022-09-28T00:10:01.074Z,69.56
2022-09-28T00:12:51.664Z,69.63
2022-09-28T00:15:29.903Z,69.62
2022-09-28T00:18:03.176Z,70.14
2022-09-28T00:24:00.968Z,70.14
2022-09-28T00:26:38.871Z,70.46
2022-09-28T00:29:26.690Z,70.42
2022-09-28T00:32:14.419Z,70.29
2022-09-28T00:34:49.471Z,70.13
2022-09-28T00:37:24.396Z,70.32
2022-09-28T00:39:59.745Z,70.40
2022-09-28T00:42:45.222Z,70.79
2022-09-28T00:45:27.437Z,70.51
2022-09-28T00:51:58.797Z,69.65
2022-09-28T00:55:01.687Z,69.96
2022-09-28T00:58:18.193Z,70.29
2022-09-28T01:01:08.931Z,70.22
2022-09-28T01:03:54.369Z,69.76
2022-09-28T01:06:40.268Z,69.92
2022-09-28T01:09:27.682Z,69.80
2022-09-28T01:12:04.362Z,69.52
2022-09-28T01:14:43.291Z,69.96
2022-09-28T01:17:22.623Z,69.91
2022-09-28T01:20:33.071Z,69.87
2022-09-28T01:23:42.751Z,69.69
2022-09-28T01:26:44.515Z,69.93
2022-09-28T01:29:22.493Z,69.18
2022-09-28T01:32:03.805Z,69.17
2022-09-28T01:34:43.933Z,69.63
2022-09-28T01:37:17.575Z,69.31
2022-09-28T01:39:51.066Z,69.42
2022-09-28T01:42:27.263Z,69.83
2022-09-28T01:45:07.487Z,69.30
2022-09-28T01:47:42.261Z,69.85
2022-09-28T01:50:14.898Z,69.70
2022-09-28T01:52:52.435Z,69.64
2022-09-28T01:55:38.510Z,70.07
2022-09-28T01:58:18.587Z,69.76
2022-09-28T02:00:56.465Z,69.76
2022-09-28T02:03:34.996Z,69.87
2022-09-28T02:06:13.710Z,70.66
2022-09-28T02:08:54.715Z,70.14
2022-09-28T02:11:34.099Z,69.96
2022-09-28T02:14:08.245Z,70.18
2022-09-28T02:16:43.474Z,70.42
2022-09-28T02:19:18.951Z,70.41
2022-09-28T02:22:02.712Z,69.84
2022-09-28T02:24:39.469Z,70.81
2022-09-28T02:27:18.837Z,70.32
2022-09-28T02:29:52.713Z,70.77
2022-09-28T02:32:24.039Z,70.85
2022-09-28T02:34:55.002Z,70.91
2022-09-28T02:37:25.919Z,70.38
2022-09-28T02:39:56.656Z,71.03
2022-09-28T02:42:33.535Z,70.77
2022-09-28T02:45:18.275Z,71.10
2022-09-28T02:48:08.821Z,70.94
2022-09-28T02:50:50.307Z,70.62
2022-09-28T02:53:37.429Z,70.71
2022-09-28T02:56:43.177Z,71.71
2022-09-28T02:59:28.125Z,70.81
2022-09-28T03:02:07.318Z,70.75
2022-09-28T03:04:46.701Z,70.61
2022-09-28T03:07:28.879Z,70.95
2022-09-28T03:10:06.261Z,70.66
2022-09-28T03:12:39.534Z,70.49
2022-09-28T03:15:23.241Z,70.71
2022-09-28T03:17:57.209Z,72.24
2022-09-28T03:20:31.624Z,71.76
2022-09-28T03:23:24.659Z,71.30
2022-09-28T03:25:55.107Z,71.52
2022-09-28T03:28:28.785Z,71.43
2022-09-28T03:31:08.711Z,71.90
2022-09-28T03:33:41.453Z,71.55
2022-09-28T03:36:20.426Z,71.24
2022-09-28T03:38:49.192Z,71.32
2022-09-28T03:41:22.944Z,71.65
2022-09-28T03:43:56.154Z,71.21
2022-09-28T03:46:27.910Z,71.28
2022-09-28T03:49:02.623Z,71.06
2022-09-28T03:51:32.150Z,70.84
2022-09-28T03:54:02.293Z,70.99
2022-09-28T03:56:36.330Z,70.96
2022-09-28T03:59:06.151Z,72.11
2022-09-28T04:01:36.875Z,71.04
2022-09-28T04:04:15.601Z,71.51
2022-09-28T04:06:46.369Z,71.71
2022-09-28T04:09:15.427Z,71.53
2022-09-28T04:12:02.867Z,71.87
2022-09-28T04:14:34.015Z,71.57
2022-09-28T04:17:08.387Z,71.89
2022-09-28T04:22:51.840Z,71.90
2022-09-28T04:25:25.273Z,71.94
2022-09-28T04:28:16.170Z,71.40
2022-09-28T04:30:48.721Z,71.94
2022-09-28T04:33:23.651Z,71.51
2022-09-28T04:35:58.469Z,71.75
2022-09-28T04:38:51.719Z,71.35
2022-09-28T04:41:25.497Z,71.24
2022-09-28T04:43:57.215Z,71.37
2022-09-28T04:46:27.639Z,71.17
2022-09-28T04:49:29.701Z,71.34
2022-09-28T04:52:27.965Z,71.44
2022-09-28T04:55:10.385Z,71.17
2022-09-28T04:57:43.266Z,71.59
2022-09-28T05:00:22.320Z,71.59
2022-09-28T05:03:07.666Z,71.24
2022-09-28T05:05:55.811Z,70.99
2022-09-28T05:08:52.069Z,71.79
2022-09-28T05:11:21.766Z,71.53
2022-09-28T05:13:57.021Z,71.45
2022-09-28T05:16:30.130Z,71.71
2022-09-28T05:19:17.917Z,71.27
2022-09-28T05:21:49.197Z,71.65
2022-09-28T05:24:27.351Z,71.94
2022-09-28T05:26:58.094Z,71.48
2022-09-28T05:29:31.904Z,71.34
2022-09-28T05:32:23.386Z,71.02
2022-09-28T05:35:19.269Z,71.69
2022-09-28T05:37:53.673Z,72.43
2022-09-28T05:40:30.128Z,71.95
2022-09-28T05:43:02.626Z,71.95
2022-09-28T05:45:35.807Z,72.10
2022-09-28T05:48:08.956Z,72.27
2022-09-28T05:50:36.944Z,71.86
2022-09-28T05:53:10.277Z,72.15
2022-09-28T05:55:47.077Z,72.27
2022-09-28T05:58:19.491Z,72.13
2022-09-28T06:00:49.670Z,72.06
2022-09-28T06:03:19.137Z,71.83
2022-09-28T06:05:47.987Z,71.60
2022-09-28T06:08:18.049Z,71.87
2022-09-28T06:11:16.746Z,72.51
2022-09-28T06:13:51.219Z,71.29
2022-09-28T06:16:30.296Z,71.39
2022-09-28T06:19:00.571Z,70.78
2022-09-28T06:21:59.352Z,70.97
2022-09-28T06:24:28.426Z,70.94
2022-09-28T06:27:04.884Z,71.17
2022-09-28T06:29:34.380Z,71.17
2022-09-28T06:32:07.323Z,71.06
2022-09-28T06:34:38.783Z,70.79
2022-09-28T06:37:09.808Z,70.87
2022-09-28T06:39:39.569Z,70.05
2022-09-28T06:42:11.067Z,69.37
2022-09-28T06:45:00.025Z,68.61
2022-09-28T06:47:48.690Z,67.57
2022-09-28T06:50:31.035Z,67.34
2022-09-28T06:53:15.196Z,65.73
2022-09-28T06:55:52.937Z,62.54
2022-09-28T06:58:27.348Z,62.10
2022-09-28T07:01:06.217Z,59.76
2022-09-28T07:04:02.838Z,59.31
2022-09-28T07:06:51.241Z,59.13
2022-09-28T07:09:51.342Z,56.77
2022-09-28T07:12:55.826Z,56.63
2022-09-28T07:15:36.284Z,51.37
2022-09-28T07:18:07.162Z,54.06
2022-09-28T07:20:51.917Z,53.37
2022-09-28T07:23:24.522Z,52.83
2022-09-28T07:26:28.791Z,51.99
2022-09-28T07:29:05.621Z,52.14
2022-09-28T07:32:00.130Z,51.80
2022-09-28T07:34:43.989Z,48.90
2022-09-28T07:37:26.748Z,47.90
2022-09-28T07:40:13.859Z,49.02
2022-09-28T07:42:42.198Z,48.79
2022-09-28T07:45:11.753Z,50.45
2022-09-28T07:47:40.872Z,53.38
2022-09-28T07:50:28.939Z,52.70
2022-09-28T07:53:15.043Z,54.39
2022-09-28T07:56:07.168Z,55.89
2022-09-28T07:58:41.744Z,56.09
2022-09-28T08:01:32.853Z,55.99
2022-09-28T08:04:02.973Z,56.59
2022-09-28T08:06:31.702Z,58.21
2022-09-28T08:09:02.196Z,57.41
2022-09-28T08:11:55.857Z,57.12
2022-09-28T08:14:42.287Z,58.48
2022-09-28T08:17:30.236Z,58.57
2022-09-28T08:20:19.504Z,58.67
2022-09-28T08:22:47.575Z,58.20
2022-09-28T08:25:15.480Z,58.60
2022-09-28T08:27:44.267Z,59.41
2022-09-28T08:30:13.024Z,58.91
2022-09-28T08:32:49.407Z,57.42
2022-09-28T08:35:39.013Z,58.96
2022-09-28T08:38:41.906Z,57.72
2022-09-28T08:41:49.563Z,59.05
2022-09-28T08:48:11.150Z,59.06
2022-09-28T08:51:06.228Z,58.79
2022-09-28T08:53:49.485Z,58.14
2022-09-28T08:56:40.641Z,58.79
2022-09-28T08:59:15.085Z,59.05
2022-09-28T09:01:51.002Z,59.17
2022-09-28T09:04:19.099Z,59.28
2022-09-28T09:07:39.987Z,58.79
2022-09-28T09:10:39.488Z,59.27
2022-09-28T09:13:20.117Z,58.68
2022-09-28T09:15:55.217Z,58.93
2022-09-28T09:18:50.575Z,58.70
2022-09-28T09:21:40.992Z,58.31
2022-09-28T09:24:25.088Z,58.42
2022-09-28T09:27:03.007Z,57.42
2022-09-28T09:29:44.780Z,58.20
2022-09-28T09:32:37.886Z,57.91
2022-09-28T09:35:20.969Z,57.81
2022-09-28T09:38:24.704Z,57.64
2022-09-28T09:41:26.602Z,58.85
2022-09-28T09:44:30.798Z,57.99
2022-09-28T09:47:23.825Z,57.60
2022-09-28T09:50:06.987Z,56.33
2022-09-28T09:52:47.769Z,48.45
2022-09-28T09:55:21.252Z,52.45
2022-09-28T09:58:01.190Z,51.51
2022-09-28T10:00:36.196Z,49.33
2022-09-28T10:03:22.467Z,50.39
2022-09-28T10:05:57.331Z,48.08
2022-09-28T10:08:27.790Z,46.94
2022-09-28T10:11:08.563Z,48.20
2022-09-28T10:13:41.503Z,47.60
2022-09-28T10:16:29.275Z,49.12
2022-09-28T10:19:01.031Z,48.37
2022-09-28T10:21:48.727Z,49.24
2022-09-28T10:24:32.297Z,48.58
2022-09-28T10:27:06.655Z,50.50
2022-09-28T10:29:46.925Z,49.80
2022-09-28T10:32:20.541Z,50.81
2022-09-28T10:34:50.875Z,51.24
2022-09-28T10:37:20.942Z,49.19
2022-09-28T10:40:30.565Z,48.94
2022-09-28T10:43:04.082Z,50.37
2022-09-28T10:45:38.705Z,51.83
2022-09-28T10:48:14.973Z,50.61
2022-09-28T10:50:44.152Z,50.28
2022-09-28T10:53:20.395Z,50.60
2022-09-28T10:56:21.809Z,50.41
2022-09-28T10:58:54.432Z,52.55
2022-09-28T11:01:34.649Z,53.00
2022-09-28T11:04:08.110Z,53.15
2022-09-28T11:06:38.835Z,54.29
2022-09-28T11:09:22.231Z,53.87
2022-09-28T11:11:50.562Z,53.73
2022-09-28T11:14:27.288Z,54.31
2022-09-28T11:17:18.826Z,54.46
2022-09-28T11:19:48.153Z,54.81
2022-09-28T11:22:26.240Z,53.58
2022-09-28T11:25:21.939Z,54.38
2022-09-28T11:28:04.441Z,54.41
2022-09-28T11:30:36.292Z,55.09
2022-09-28T11:33:28.798Z,55.10
2022-09-28T11:39:37.127Z,54.77
2022-09-28T11:42:16.447Z,54.53
2022-09-28T11:44:47.216Z,54.50
2022-09-28T11:47:52.657Z,54.13
2022-09-28T11:50:39.874Z,54.32
2022-09-28T11:53:19.678Z,53.56
2022-09-28T11:55:55.905Z,54.05
2022-09-28T11:58:41.111Z,54.75
2022-09-28T12:01:21.608Z,54.88
2022-09-28T12:04:15.198Z,54.79
2022-09-28T12:06:50.208Z,54.89
2022-09-28T12:09:25.988Z,55.28
2022-09-28T12:12:03.613Z,53.81
2022-09-28T12:14:46.610Z,54.95
2022-09-28T12:17:22.634Z,54.85
2022-09-28T12:19:55.914Z,55.46
2022-09-28T12:22:33.175Z,56.02
2022-09-28T12:25:04.554Z,55.74
2022-09-28T12:27:41.367Z,56.62
2022-09-28T12:30:16.153Z,56.24
2022-09-28T12:32:46.023Z,56.41
2022-09-28T12:35:16.093Z,56.74
2022-09-28T12:38:23.486Z,56.70
2022-09-28T12:40:59.419Z,56.40
2022-09-28T12:43:54.646Z,55.76
2022-09-28T12:46:49.052Z,55.59
2022-09-28T12:52:33.990Z,55.28
2022-09-28T12:55:19.652Z,55.37
2022-09-28T12:58:01.394Z,55.82
2022-09-28T13:00:41.594Z,55.84
2022-09-28T13:03:45.986Z,55.79
2022-09-28T13:06:55.724Z,55.79
2022-09-28T13:09:26.196Z,55.84
2022-09-28T13:12:06.938Z,56.41
2022-09-28T13:15:09.918Z,56.56
2022-09-28T13:17:47.346Z,57.01
2022-09-28T13:20:23.313Z,56.88
2022-09-28T13:22:58.406Z,57.03
2022-09-28T13:25:29.960Z,57.55
2022-09-28T13:28:02.857Z,57.75
2022-09-28T13:30:31.677Z,57.63
2022-09-28T13:33:02.158Z,57.33
2022-09-28T13:35:30.287Z,56.79
2022-09-28T13:38:41.602Z,57.19
2022-09-28T13:41:27.928Z,56.95
2022-09-28T13:44:30.811Z,57.40
2022-09-28T13:47:21.052Z,57.80
2022-09-28T13:50:08.481Z,57.64
2022-09-28T13:52:51.608Z,58.08
2022-09-28T13:55:39.849Z,58.13
2022-09-28T13:58:26.978Z,58.11
2022-09-28T14:01:22.197Z,58.27
2022-09-28T14:04:21.922Z,58.00
2022-09-28T14:07:16.179Z,57.90
2022-09-28T14:12:55.554Z,58.21
2022-09-28T14:15:45.662Z,58.19
2022-09-28T14:18:50.206Z,58.06
2022-09-28T14:22:09.613Z,58.09
2022-09-28T14:25:00.399Z,57.78
2022-09-28T14:27:50.935Z,57.55
2022-09-28T14:30:40.423Z,57.60
2022-09-28T14:36:51.920Z,56.95
2022-09-28T14:39:42.125Z,57.01
2022-09-28T14:42:16.234Z,57.00
2022-09-28T14:45:37.450Z,56.81
2022-09-28T14:48:24.285Z,56.93
2022-09-28T14:50:58.210Z,57.00
2022-09-28T14:53:31.834Z,56.84
2022-09-28T14:56:10.803Z,57.20
2022-09-28T14:58:44.219Z,57.05
2022-09-28T15:01:32.097Z,57.36
2022-09-28T15:04:23.143Z,57.28
2022-09-28T15:06:55.079Z,57.10
2022-09-28T15:09:40.138Z,57.18
2022-09-28T15:12:22.152Z,57.26
2022-09-28T15:14:58.785Z,56.93
2022-09-28T15:17:37.034Z,56.76
2022-09-28T15:20:29.854Z,56.83
2022-09-28T15:23:11.667Z,56.79
2022-09-28T15:25:42.771Z,57.00
2022-09-28T15:28:22.928Z,57.13
2022-09-28T15:30:55.598Z,56.59
2022-09-28T15:33:46.868Z,56.36
2022-09-28T15:36:24.227Z,56.72
2022-09-28T15:39:00.054Z,57.30
2022-09-28T15:41:33.487Z,57.66
2022-09-28T15:44:11.270Z,57.51
2022-09-28T15:46:45.172Z,57.80
2022-09-28T15:49:26.980Z,57.23
2022-09-28T15:52:04.948Z,57.27
2022-09-28T15:54:48.730Z,57.81
2022-09-28T15:57:38.315Z,57.75
2022-09-28T16:00:28.995Z,57.79
2022-09-28T16:06:18.493Z,58.28
2022-09-28T16:09:00.088Z,57.86
2022-09-28T16:11:42.097Z,58.37
2022-09-28T16:14:25.728Z,58.27
2022-09-28T16:16:59.607Z,58.54
2022-09-28T16:19:35.450Z,59.29
2022-09-28T16:22:36.562Z,59.08
2022-09-28T16:25:25.670Z,59.09
2022-09-28T16:27:57.981Z,59.23
2022-09-28T16:30:41.076Z,59.23
2022-09-28T16:33:30.021Z,59.23
2022-09-28T16:36:06.540Z,59.20
2022-09-28T16:38:39.100Z,59.59
2022-09-28T16:41:12.914Z,59.71
2022-09-28T16:43:43.590Z,59.81
2022-09-28T16:46:18.606Z,59.80
2022-09-28T16:48:50.714Z,59.85
2022-09-28T16:51:20.777Z,59.45
2022-09-28T16:54:08.300Z,59.88
2022-09-28T16:56:40.376Z,59.41
2022-09-28T16:59:13.999Z,59.75
2022-09-28T17:01:45.788Z,59.54
2022-09-28T17:04:17.707Z,60.18
2022-09-28T17:06:47.983Z,59.71
2022-09-28T17:09:18.899Z,59.71
2022-09-28T17:11:57.292Z,60.46
2022-09-28T17:14:36.854Z,60.51
2022-09-28T17:17:19.205Z,60.89
2022-09-28T17:19:46.992Z,60.29
2022-09-28T17:22:18.764Z,60.31
2022-09-28T17:24:49.788Z,60.81
2022-09-28T17:27:25.604Z,60.06
2022-09-28T17:29:56.924Z,60.14
2022-09-28T17:32:26.829Z,60.11
2022-09-28T17:35:22.609Z,60.22
2022-09-28T17:37:52.745Z,60.67
2022-09-28T17:40:26.809Z,60.82
2022-09-28T17:42:59.676Z,61.04
2022-09-28T17:45:33.316Z,60.92
2022-09-28T17:48:05.845Z,60.81
2022-09-28T17:50:37.438Z,60.70
2022-09-28T17:53:11.136Z,61.03
2022-09-28T17:55:44.450Z,60.62
2022-09-28T17:58:25.285Z,61.58
2022-09-28T18:01:14.466Z,60.97
2022-09-28T18:03:47.249Z,60.96
2022-09-28T18:06:22.519Z,61.40
2022-09-28T18:08:53.764Z,61.26
2022-09-28T18:11:25.202Z,61.33
2022-09-28T18:14:11.301Z,61.04
2022-09-28T18:16:41.184Z,61.39
2022-09-28T18:19:18.407Z,61.65
2022-09-28T18:21:47.353Z,61.04
2022-09-28T18:24:24.864Z,61.34
2022-09-28T18:27:02.027Z,61.11
2022-09-28T18:29:46.486Z,61.28
2022-09-28T18:32:27.989Z,61.27
2022-09-28T18:35:04.348Z,61.43
2022-09-28T18:37:42.623Z,61.30
2022-09-28T18:40:22.463Z,61.21
2022-09-28T18:43:07.787Z,61.22
2022-09-28T18:45:39.852Z,61.86
2022-09-28T18:48:10.257Z,61.46
2022-09-28T18:50:42.660Z,61.26
2022-09-28T18:53:20.898Z,61.24
2022-09-28T18:55:48.891Z,61.01
2022-09-28T18:58:21.205Z,60.96
2022-09-28T19:00:51.558Z,61.41
2022-09-28T19:03:22.032Z,61.31
2022-09-28T19:05:53.760Z,61.62
2022-09-28T19:08:27.915Z,61.65
2022-09-28T19:11:06.574Z,62.39
2022-09-28T19:13:38.634Z,61.56
2022-09-28T19:16:12.958Z,61.85
2022-09-28T19:18:45.246Z,61.98
2022-09-28T19:21:18.032Z,62.68
2022-09-28T19:23:49.292Z,63.01
2022-09-28T19:26:21.778Z,63.27
2022-09-28T19:28:53.502Z,62.85
2022-09-28T19:31:23.838Z,62.83
2022-09-28T19:34:02.889Z,63.20
2022-09-28T19:36:32.956Z,63.68
2022-09-28T19:39:05.190Z,62.82
2022-09-28T19:41:47.644Z,63.04
2022-09-28T19:44:25.473Z,63.26
2022-09-28T19:47:10.557Z,63.25
2022-09-28T19:49:43.658Z,63.00
2022-09-28T19:52:28.383Z,63.57
2022-09-28T19:55:15.202Z,63.63
2022-09-28T19:57:48.777Z,62.94
2022-09-28T20:00:29.595Z,63.33
2022-09-28T20:03:09.653Z,63.17
2022-09-28T20:05:42.587Z,63.30
2022-09-28T20:08:19.228Z,63.52
2022-09-28T20:11:03.671Z,63.81
2022-09-28T20:13:33.523Z,63.46
2022-09-28T20:16:09.670Z,63.90
2022-09-28T20:18:43.707Z,63.64
2022-09-28T20:21:18.033Z,64.32
2022-09-28T20:23:50.295Z,64.63
2022-09-28T20:26:29.729Z,64.67
2022-09-28T20:28:59.704Z,64.71
2022-09-28T20:31:28.901Z,64.66
2022-09-28T20:33:58.817Z,65.20
2022-09-28T20:36:27.116Z,65.24
2022-09-28T20:38:57.507Z,64.69
2022-09-28T20:41:29.141Z,65.22
2022-09-28T20:44:04.863Z,64.46
2022-09-28T20:46:33.719Z,64.36
2022-09-28T20:49:08.109Z,64.42
2022-09-28T20:51:35.901Z,64.87
2022-09-28T20:54:03.642Z,64.79
2022-09-28T20:56:37.930Z,64.80
2022-09-28T20:59:10.462Z,65.71
2022-09-28T21:01:38.210Z,66.27
2022-09-28T21:04:10.096Z,65.79
2022-09-28T21:11:54.632Z,66.28
2022-09-28T21:14:46.744Z,66.56
2022-09-28T21:17:19.634Z,65.95
2022-09-28T21:19:55.281Z,65.34
2022-09-28T21:22:46.193Z,65.59
2022-09-28T21:25:35.970Z,65.76
2022-09-28T21:28:52.680Z,65.64
2022-09-28T21:31:40.673Z,65.26
2022-09-28T21:35:04.172Z,64.93
2022-09-28T21:37:40.381Z,65.44
2022-09-28T21:40:13.644Z,65.22
2022-09-28T21:42:47.955Z,65.65
2022-09-28T21:45:27.805Z,64.81
2022-09-28T21:48:10.126Z,65.60
2022-09-28T21:51:22.428Z,64.70
2022-09-28T22:06:46.458Z,65.72
2022-09-28T22:09:40.156Z,65.41
2022-09-28T22:15:36.267Z,65.08
2022-09-28T22:18:35.730Z,65.64
2022-09-28T22:21:41.859Z,66.16
2022-09-28T22:24:45.166Z,65.35
2022-09-28T22:27:42.017Z,65.46
2022-09-28T22:30:53.973Z,65.40
2022-09-28T22:33:45.437Z,65.42
2022-09-28T22:36:28.612Z,65.68
2022-09-28T22:39:21.385Z,65.75
2022-09-28T22:42:09.220Z,65.91
2022-09-28T22:44:39.072Z,65.26
2022-09-28T22:47:06.999Z,65.04
2022-09-28T22:49:34.810Z,65.31
2022-09-28T22:52:03.563Z,65.23
2022-09-28T22:54:34.675Z,65.82
2022-09-28T22:57:03.075Z,66.13
2022-09-28T22:59:35.578Z,65.51
2022-09-28T23:02:03.466Z,65.70
2022-09-28T23:04:32.343Z,65.20
2022-09-28T23:07:01.181Z,64.79
2022-09-28T23:09:29.353Z,65.49
2022-09-28T23:11:57.628Z,65.75
2022-09-28T23:14:29.744Z,65.46
2022-09-28T23:16:59.363Z,66.03
2022-09-28T23:19:27.187Z,65.61
2022-09-28T23:21:55.399Z,66.00
2022-09-28T23:24:23.674Z,65.77
2022-09-28T23:26:51.803Z,66.11
2022-09-28T23:29:19.707Z,66.46
2022-09-28T23:31:47.637Z,66.44
2022-09-28T23:34:20.583Z,66.20
2022-09-28T23:36:48.438Z,67.21
2022-09-28T23:39:16.242Z,67.59
2022-09-28T23:41:43.971Z,66.97
2022-09-28T23:44:19.250Z,67.07
2022-09-28T23:46:52.548Z,67.16
2022-09-28T23:49:27.093Z,67.35
2022-09-28T23:51:59.672Z,67.24
2022-09-28T23:54:33.941Z,67.78
2022-09-28T23:57:06.708Z,68.15
2022-09-28T23:59:39.289Z,67.92
